Halsey, Oregon
Current Conditions -  °F | °C
As of 7:35 PM on Wednesday 22 Oct 2014 (Local Time) from KCVO Reporting Station
Overcast Overcast  
Wind Chill: 57°   Ceiling: 4400
Heat Index: 57°   Visibility: 5mi
Dew Point: 54°   Wind: 8mph
Humidity: 88%   Direction: 170°S
Pressure: 29.76"   Gusts: NA
Location:  44.38°N, 123.11°W
Report Text: KCVO 230235Z AUTO 17007KT 5SM FEW033 BKN044 OVC065 14/12 A2976 RMK AO1 P0001
Loading
Personal Weather Stations






























Interactive Weather Map
Tropical Storm Tracking
New forecast layout! Learn more

10-Day Weather Forecast

Advertisements
Track Severe Weather on mobile